Aérodrome :
LOGIN :

S'inscrire | Disclaimer

   EN    FR    IT 

 










Légende :    VFR   VFR Marginal   IFR   IFR Intensif   IFR Très Intensif
Visi : 
Plafond : 
>= 8 km
>= 3000ft
5 à 8 km
1000 à 3000 ft
1500m à 5 km
500 à 1000 ft
800 à 1500m
200 à 500 ft
< 800m
< 200 ft
Symboles :   Orages  Brouillard  Fortes neiges  Fortes précipitations  Vent > 20 kt
SIGMETs :   Divers  Orages  Givrage  Turbulence  Onde Orograph.  Cendres Volcan.







- Altitude de l'aérodrome : 499 ft
- Code IATA : TLS
- Voir les cartes d'approche


LFBO - Toulouse / Blagnac

DERNIER METAR :
  • 211530Z AUTO VRB02KT CAVOK 26/04 Q1016 NOSIG

METARs EXPIRÉS :
  • 211500Z AUTO VRB03KT CAVOK 26/03 Q1016 NOSIG
  • 211430Z AUTO VRB02KT CAVOK 26/04 Q1016 NOSIG
  • 211400Z AUTO VRB02KT CAVOK 26/05 Q1016 NOSIG
  • 211330Z AUTO VRB03KT CAVOK 26/06 Q1016 NOSIG
  • 211300Z AUTO 07004KT 010V110 CAVOK 25/06 Q1016 NOSIG
  • 211230Z AUTO 09005KT 040V140 CAVOK 24/07 Q1017 NOSIG

TAF TAF LFBO
Valide du 21 à 12h jusqu'au 22 à 18h UTC


211100Z 2112/2218 14008KT CAVOK
BECMG 2114/2116 29006KT
BECMG 2201/2203 BKN008
PROB40
TEMPO 2204/2207 4000 BR BKN004
BECMG 2209/2211 CAVOK
ATIS : +33 5 62 74 66 36
Pas de NOTAMs connus pour ce terrain.



MET'MAP, la Météo Aéronautique d'un coup d'oeil ! - Copyright ORBIFLY Décembre 2007 - Disclaimer

ORBIFLY MET'MAP TEAM :

Programmation & Développement : Alexandra Zaïnal
Conception & Développement : Baudouin d'Aumeries
Co-Programmation & Développement : Marc-Olivier Méhu
Soutien technique & logistique : Manuel Goepfert

Contact : metmap@orbifly.com




SOURCES & CREDITS :

   NOAA